sensor_id;sensor_type;location;lat;lon;timestamp;pressure;altitude;pressure_sealevel;temperature;humidity
27613;BME280;15036;48.094;-1.690;2022-12-11T00:01:28;100500.00;;;6.81;53.42
27613;BME280;15036;48.094;-1.690;2022-12-11T00:03:53;100497.50;;;6.94;52.80
27613;BME280;15036;48.094;-1.690;2022-12-11T00:06:21;100495.75;;;6.78;53.16
27613;BME280;15036;48.094;-1.690;2022-12-11T00:08:50;100505.03;;;6.84;53.08
27613;BME280;15036;48.094;-1.690;2022-12-11T00:11:16;100493.53;;;7.05;52.79
27613;BME280;15036;48.094;-1.690;2022-12-11T00:13:41;100504.84;;;6.85;53.10
27613;BME280;15036;48.094;-1.690;2022-12-11T00:16:08;100495.38;;;6.81;53.26
27613;BME280;15036;48.094;-1.690;2022-12-11T00:18:34;100505.00;;;6.69;53.21
27613;BME280;15036;48.094;-1.690;2022-12-11T00:21:01;100503.66;;;6.88;53.03
27613;BME280;15036;48.094;-1.690;2022-12-11T00:23:27;100502.56;;;6.74;52.99
27613;BME280;15036;48.094;-1.690;2022-12-11T00:25:53;100500.63;;;6.60;53.43
27613;BME280;15036;48.094;-1.690;2022-12-11T00:28:18;100499.44;;;6.85;52.91
27613;BME280;15036;48.094;-1.690;2022-12-11T00:30:44;100491.94;;;6.87;52.79
27613;BME280;15036;48.094;-1.690;2022-12-11T00:33:10;100487.63;;;6.78;52.97
27613;BME280;15036;48.094;-1.690;2022-12-11T00:35:40;100485.81;;;6.71;53.05
27613;BME280;15036;48.094;-1.690;2022-12-11T00:38:06;100487.44;;;6.80;52.99
27613;BME280;15036;48.094;-1.690;2022-12-11T00:40:33;100484.38;;;6.83;52.65
27613;BME280;15036;48.094;-1.690;2022-12-11T00:42:59;100486.97;;;6.76;52.64
27613;BME280;15036;48.094;-1.690;2022-12-11T00:45:24;100480.50;;;6.55;53.09
27613;BME280;15036;48.094;-1.690;2022-12-11T00:47:50;100479.06;;;6.67;52.95
27613;BME280;15036;48.094;-1.690;2022-12-11T00:50:15;100477.41;;;6.35;53.38
27613;BME280;15036;48.094;-1.690;2022-12-11T00:52:40;100473.75;;;6.51;53.22
27613;BME280;15036;48.094;-1.690;2022-12-11T00:55:06;100472.28;;;6.40;53.28
27613;BME280;15036;48.094;-1.690;2022-12-11T00:57:31;100469.28;;;6.35;53.46
27613;BME280;15036;48.094;-1.690;2022-12-11T00:59:57;100467.53;;;6.20;53.59
27613;BME280;15036;48.094;-1.690;2022-12-11T01:02:22;100467.09;;;6.31;53.39
27613;BME280;15036;48.094;-1.690;2022-12-11T01:04:47;100460.94;;;6.14;53.74
27613;BME280;15036;48.094;-1.690;2022-12-11T01:07:13;100452.19;;;6.04;54.08
27613;BME280;15036;48.094;-1.690;2022-12-11T01:09:38;100463.03;;;6.04;53.81
27613;BME280;15036;48.094;-1.690;2022-12-11T01:12:22;100455.94;;;5.95;54.00
27613;BME280;15036;48.094;-1.690;2022-12-11T01:14:48;100448.22;;;5.84;54.57
27613;BME280;15036;48.094;-1.690;2022-12-11T01:17:13;100446.19;;;5.86;54.55
27613;BME280;15036;48.094;-1.690;2022-12-11T01:19:39;100445.31;;;5.93;54.50
27613;BME280;15036;48.094;-1.690;2022-12-11T01:22:04;100448.75;;;5.71;54.69
27613;BME280;15036;48.094;-1.690;2022-12-11T01:24:29;100444.06;;;5.57;55.28
27613;BME280;15036;48.094;-1.690;2022-12-11T01:26:55;100434.22;;;5.72;55.05
27613;BME280;15036;48.094;-1.690;2022-12-11T01:29:20;100431.66;;;5.71;55.05
27613;BME280;15036;48.094;-1.690;2022-12-11T01:31:46;100435.22;;;5.71;55.10
27613;BME280;15036;48.094;-1.690;2022-12-11T01:34:11;100428.63;;;5.66;55.07
27613;BME280;15036;48.094;-1.690;2022-12-11T01:36:36;100433.13;;;5.43;55.94
27613;BME280;15036;48.094;-1.690;2022-12-11T01:39:02;100424.63;;;5.54;55.64
27613;BME280;15036;48.094;-1.690;2022-12-11T01:41:27;100437.56;;;5.27;55.90
27613;BME280;15036;48.094;-1.690;2022-12-11T01:46:25;100430.53;;;5.57;55.49
27613;BME280;15036;48.094;-1.690;2022-12-11T01:48:52;100426.69;;;5.44;55.83
27613;BME280;15036;48.094;-1.690;2022-12-11T01:51:18;100430.03;;;5.54;55.47
27613;BME280;15036;48.094;-1.690;2022-12-11T01:53:54;100422.97;;;5.45;55.66
27613;BME280;15036;48.094;-1.690;2022-12-11T01:56:20;100434.13;;;5.50;55.73
27613;BME280;15036;48.094;-1.690;2022-12-11T01:58:51;100436.16;;;5.40;55.82
27613;BME280;15036;48.094;-1.690;2022-12-11T02:01:25;100433.28;;;5.41;55.97
27613;BME280;15036;48.094;-1.690;2022-12-11T02:03:54;100421.81;;;5.31;56.27
27613;BME280;15036;48.094;-1.690;2022-12-11T02:06:38;100425.88;;;5.27;56.44
27613;BME280;15036;48.094;-1.690;2022-12-11T02:09:07;100413.25;;;5.11;56.47
27613;BME280;15036;48.094;-1.690;2022-12-11T02:14:19;100410.00;;;5.24;56.26
27613;BME280;15036;48.094;-1.690;2022-12-11T02:17:16;100411.84;;;5.32;56.11
27613;BME280;15036;48.094;-1.690;2022-12-11T02:20:12;100416.09;;;5.26;56.08
27613;BME280;15036;48.094;-1.690;2022-12-11T02:22:57;100416.91;;;5.35;56.06
27613;BME280;15036;48.094;-1.690;2022-12-11T02:30:54;100408.22;;;4.92;56.67
27613;BME280;15036;48.094;-1.690;2022-12-11T02:33:29;100417.03;;;4.78;57.43
27613;BME280;15036;48.094;-1.690;2022-12-11T02:35:57;100413.81;;;4.91;57.26
27613;BME280;15036;48.094;-1.690;2022-12-11T02:38:27;100419.34;;;4.97;56.69
27613;BME280;15036;48.094;-1.690;2022-12-11T02:40:56;100420.88;;;5.00;56.51
27613;BME280;15036;48.094;-1.690;2022-12-11T02:43:23;100419.00;;;5.08;56.31
27613;BME280;15036;48.094;-1.690;2022-12-11T02:45:50;100418.16;;;5.08;56.50
27613;BME280;15036;48.094;-1.690;2022-12-11T02:48:17;100430.88;;;4.75;57.14
27613;BME280;15036;48.094;-1.690;2022-12-11T02:50:46;100420.19;;;5.06;56.60
27613;BME280;15036;48.094;-1.690;2022-12-11T02:53:17;100420.19;;;5.06;56.75
27613;BME280;15036;48.094;-1.690;2022-12-11T02:55:44;100428.81;;;5.01;56.63
27613;BME280;15036;48.094;-1.690;2022-12-11T02:58:15;100426.13;;;4.93;56.73
27613;BME280;15036;48.094;-1.690;2022-12-11T03:00:43;100425.13;;;4.86;57.27
27613;BME280;15036;48.094;-1.690;2022-12-11T03:03:09;100412.78;;;4.92;56.82
27613;BME280;15036;48.094;-1.690;2022-12-11T03:05:37;100418.16;;;5.16;56.58
27613;BME280;15036;48.094;-1.690;2022-12-11T03:08:02;100418.50;;;5.13;56.74
27613;BME280;15036;48.094;-1.690;2022-12-11T03:10:28;100417.47;;;5.14;56.43
27613;BME280;15036;48.094;-1.690;2022-12-11T03:12:57;100424.06;;;5.11;57.11
27613;BME280;15036;48.094;-1.690;2022-12-11T03:15:49;100412.25;;;5.04;57.00
27613;BME280;15036;48.094;-1.690;2022-12-11T03:21:02;100412.53;;;5.25;56.61
27613;BME280;15036;48.094;-1.690;2022-12-11T03:23:47;100427.56;;;5.36;56.10
27613;BME280;15036;48.094;-1.690;2022-12-11T03:26:16;100423.69;;;5.31;56.36
27613;BME280;15036;48.094;-1.690;2022-12-11T03:31:26;100419.09;;;5.31;56.08
27613;BME280;15036;48.094;-1.690;2022-12-11T03:33:57;100408.47;;;5.29;56.16
27613;BME280;15036;48.094;-1.690;2022-12-11T03:36:30;100404.09;;;5.20;56.29
27613;BME280;15036;48.094;-1.690;2022-12-11T03:38:59;100393.59;;;5.25;56.18
27613;BME280;15036;48.094;-1.690;2022-12-11T03:41:26;100389.22;;;5.24;56.31
27613;BME280;15036;48.094;-1.690;2022-12-11T03:43:55;100389.53;;;5.29;56.03
27613;BME280;15036;48.094;-1.690;2022-12-11T03:46:26;100386.84;;;5.21;56.10
27613;BME280;15036;48.094;-1.690;2022-12-11T03:48:53;100388.75;;;5.13;56.11
27613;BME280;15036;48.094;-1.690;2022-12-11T03:51:21;100386.72;;;5.15;56.17
27613;BME280;15036;48.094;-1.690;2022-12-11T03:53:48;100389.22;;;5.24;55.59
27613;BME280;15036;48.094;-1.690;2022-12-11T03:56:14;100391.78;;;5.02;56.26
27613;BME280;15036;48.094;-1.690;2022-12-11T03:58:40;100395.81;;;5.14;56.09
27613;BME280;15036;48.094;-1.690;2022-12-11T04:01:10;100395.16;;;5.04;56.38
27613;BME280;15036;48.094;-1.690;2022-12-11T04:03:36;100394.66;;;5.08;56.41
27613;BME280;15036;48.094;-1.690;2022-12-11T04:06:02;100395.69;;;4.99;56.26
27613;BME280;15036;48.094;-1.690;2022-12-11T04:08:28;100379.97;;;5.11;56.26
27613;BME280;15036;48.094;-1.690;2022-12-11T04:10:53;100383.84;;;5.08;56.42
27613;BME280;15036;48.094;-1.690;2022-12-11T04:13:39;100380.47;;;5.06;56.56
27613;BME280;15036;48.094;-1.690;2022-12-11T04:16:05;100384.56;;;4.94;56.73
27613;BME280;15036;48.094;-1.690;2022-12-11T04:18:31;100381.66;;;5.04;56.54
27613;BME280;15036;48.094;-1.690;2022-12-11T04:21:15;100376.59;;;5.09;56.61
27613;BME280;15036;48.094;-1.690;2022-12-11T04:23:59;100377.59;;;5.08;56.51
27613;BME280;15036;48.094;-1.690;2022-12-11T04:26:44;100377.41;;;5.09;56.76
27613;BME280;15036;48.094;-1.690;2022-12-11T04:29:10;100381.25;;;5.23;56.38
27613;BME280;15036;48.094;-1.690;2022-12-11T04:31:35;100371.28;;;5.15;56.60
27613;BME280;15036;48.094;-1.690;2022-12-11T04:34:00;100367.38;;;5.26;56.24
27613;BME280;15036;48.094;-1.690;2022-12-11T04:36:26;100371.28;;;5.15;56.44
27613;BME280;15036;48.094;-1.690;2022-12-11T04:38:51;100355.91;;;5.16;56.60
27613;BME280;15036;48.094;-1.690;2022-12-11T04:41:17;100357.22;;;5.28;56.40
27613;BME280;15036;48.094;-1.690;2022-12-11T04:43:42;100356.06;;;5.22;56.24
27613;BME280;15036;48.094;-1.690;2022-12-11T04:46:19;100352.38;;;5.07;56.67
27613;BME280;15036;48.094;-1.690;2022-12-11T04:48:46;100345.09;;;5.16;56.35
27613;BME280;15036;48.094;-1.690;2022-12-11T04:51:12;100354.41;;;5.05;56.62
27613;BME280;15036;48.094;-1.690;2022-12-11T04:53:38;100346.84;;;5.01;56.87
27613;BME280;15036;48.094;-1.690;2022-12-11T04:56:08;100342.22;;;5.09;56.91
27613;BME280;15036;48.094;-1.690;2022-12-11T04:58:35;100347.81;;;5.08;56.86
27613;BME280;15036;48.094;-1.690;2022-12-11T05:01:09;100352.66;;;5.28;56.60
27613;BME280;15036;48.094;-1.690;2022-12-11T05:03:35;100356.13;;;5.06;56.71
27613;BME280;15036;48.094;-1.690;2022-12-11T05:06:01;100341.72;;;5.14;56.69
27613;BME280;15036;48.094;-1.690;2022-12-11T05:08:26;100339.84;;;5.22;56.58
27613;BME280;15036;48.094;-1.690;2022-12-11T05:13:21;100333.47;;;4.99;57.17
27613;BME280;15036;48.094;-1.690;2022-12-11T05:15:47;100335.81;;;5.10;56.94
27613;BME280;15036;48.094;-1.690;2022-12-11T05:18:13;100343.28;;;5.00;57.48
27613;BME280;15036;48.094;-1.690;2022-12-11T05:20:38;100342.41;;;5.08;57.17
27613;BME280;15036;48.094;-1.690;2022-12-11T05:23:03;100341.75;;;5.06;57.04
27613;BME280;15036;48.094;-1.690;2022-12-11T05:25:29;100339.72;;;5.08;57.31
27613;BME280;15036;48.094;-1.690;2022-12-11T05:27:54;100343.44;;;5.15;57.19
27613;BME280;15036;48.094;-1.690;2022-12-11T05:30:19;100337.69;;;5.10;57.08
27613;BME280;15036;48.094;-1.690;2022-12-11T05:32:46;100333.78;;;5.12;57.15
27613;BME280;15036;48.094;-1.690;2022-12-11T05:35:11;100326.56;;;5.05;57.39
27613;BME280;15036;48.094;-1.690;2022-12-11T05:37:37;100329.28;;;4.97;57.79
27613;BME280;15036;48.094;-1.690;2022-12-11T05:40:03;100333.44;;;5.15;57.23
27613;BME280;15036;48.094;-1.690;2022-12-11T05:42:31;100339.19;;;5.12;57.52
27613;BME280;15036;48.094;-1.690;2022-12-11T05:44:56;100332.44;;;5.08;57.83
27613;BME280;15036;48.094;-1.690;2022-12-11T05:47:22;100334.75;;;5.19;57.38
27613;BME280;15036;48.094;-1.690;2022-12-11T05:49:47;100332.25;;;5.18;57.40
27613;BME280;15036;48.094;-1.690;2022-12-11T05:52:12;100333.72;;;5.28;57.32
27613;BME280;15036;48.094;-1.690;2022-12-11T05:54:40;100324.56;;;5.29;57.36
27613;BME280;15036;48.094;-1.690;2022-12-11T05:57:06;100328.97;;;5.39;57.21
27613;BME280;15036;48.094;-1.690;2022-12-11T05:59:31;100325.91;;;5.34;57.57
27613;BME280;15036;48.094;-1.690;2022-12-11T06:01:57;100322.31;;;5.41;57.36
27613;BME280;15036;48.094;-1.690;2022-12-11T06:04:22;100324.13;;;5.49;57.25
27613;BME280;15036;48.094;-1.690;2022-12-11T06:06:47;100330.69;;;5.62;57.16
27613;BME280;15036;48.094;-1.690;2022-12-11T06:09:14;100325.00;;;5.49;57.49
27613;BME280;15036;48.094;-1.690;2022-12-11T06:11:40;100324.56;;;5.68;57.05
27613;BME280;15036;48.094;-1.690;2022-12-11T06:14:05;100323.94;;;5.58;57.09
27613;BME280;15036;48.094;-1.690;2022-12-11T06:16:31;100328.91;;;5.47;57.58
27613;BME280;15036;48.094;-1.690;2022-12-11T06:18:57;100330.19;;;5.59;57.30
27613;BME280;15036;48.094;-1.690;2022-12-11T06:21:23;100315.59;;;5.68;57.00
27613;BME280;15036;48.094;-1.690;2022-12-11T06:23:51;100318.59;;;5.73;56.94
27613;BME280;15036;48.094;-1.690;2022-12-11T06:26:17;100317.19;;;5.54;57.42
27613;BME280;15036;48.094;-1.690;2022-12-11T06:28:44;100314.19;;;5.41;57.38
27613;BME280;15036;48.094;-1.690;2022-12-11T06:31:09;100312.94;;;5.60;57.09
27613;BME280;15036;48.094;-1.690;2022-12-11T06:33:35;100309.94;;;5.16;57.92
27613;BME280;15036;48.094;-1.690;2022-12-11T06:36:04;100310.41;;;5.58;56.96
27613;BME280;15036;48.094;-1.690;2022-12-11T06:38:30;100312.94;;;5.60;57.01
27613;BME280;15036;48.094;-1.690;2022-12-11T06:40:57;100312.16;;;5.74;56.75
27613;BME280;15036;48.094;-1.690;2022-12-11T06:43:23;100313.84;;;5.75;56.64
27613;BME280;15036;48.094;-1.690;2022-12-11T06:45:50;100306.28;;;5.70;57.03
27613;BME280;15036;48.094;-1.690;2022-12-11T06:48:16;100313.13;;;5.58;57.25
27613;BME280;15036;48.094;-1.690;2022-12-11T06:50:41;100315.34;;;5.77;56.84
27613;BME280;15036;48.094;-1.690;2022-12-11T06:53:06;100309.22;;;5.91;56.47
27613;BME280;15036;48.094;-1.690;2022-12-11T06:55:35;100313.03;;;5.74;57.01
27613;BME280;15036;48.094;-1.690;2022-12-11T06:58:00;100311.44;;;5.88;56.62
27613;BME280;15036;48.094;-1.690;2022-12-11T07:00:26;100313.78;;;5.83;56.70
27613;BME280;15036;48.094;-1.690;2022-12-11T07:02:51;100305.66;;;5.91;56.84
27613;BME280;15036;48.094;-1.690;2022-12-11T07:05:17;100313.84;;;5.75;56.81
27613;BME280;15036;48.094;-1.690;2022-12-11T07:07:42;100315.66;;;5.82;56.78
27613;BME280;15036;48.094;-1.690;2022-12-11T07:10:08;100316.25;;;5.70;57.11
27613;BME280;15036;48.094;-1.690;2022-12-11T07:12:34;100306.56;;;5.75;56.84
27613;BME280;15036;48.094;-1.690;2022-12-11T07:14:59;100309.91;;;5.85;56.88
27613;BME280;15036;48.094;-1.690;2022-12-11T07:17:24;100299.59;;;5.81;56.98
27613;BME280;15036;48.094;-1.690;2022-12-11T07:19:50;100303.34;;;6.02;56.63
27613;BME280;15036;48.094;-1.690;2022-12-11T07:22:15;100301.28;;;5.90;56.56
27613;BME280;15036;48.094;-1.690;2022-12-11T07:24:40;100294.63;;;5.92;56.66
27613;BME280;15036;48.094;-1.690;2022-12-11T07:27:06;100303.72;;;5.99;56.56
27613;BME280;15036;48.094;-1.690;2022-12-11T07:29:31;100303.53;;;6.01;56.60
27613;BME280;15036;48.094;-1.690;2022-12-11T07:31:56;100306.31;;;5.93;56.57
27613;BME280;15036;48.094;-1.690;2022-12-11T07:34:22;100297.03;;;5.87;56.86
27613;BME280;15036;48.094;-1.690;2022-12-11T07:36:47;100303.91;;;5.98;56.78
27613;BME280;15036;48.094;-1.690;2022-12-11T07:39:13;100295.78;;;5.98;56.60
27613;BME280;15036;48.094;-1.690;2022-12-11T07:41:38;100299.09;;;5.85;56.67
27613;BME280;15036;48.094;-1.690;2022-12-11T07:44:04;100308.97;;;6.01;56.60
27613;BME280;15036;48.094;-1.690;2022-12-11T07:46:31;100308.72;;;5.88;56.77
27613;BME280;15036;48.094;-1.690;2022-12-11T07:48:57;100311.66;;;6.01;56.76
27613;BME280;15036;48.094;-1.690;2022-12-11T07:51:33;100316.31;;;6.15;56.25
27613;BME280;15036;48.094;-1.690;2022-12-11T07:54:06;100311.06;;;5.91;57.04
27613;BME280;15036;48.094;-1.690;2022-12-11T07:56:33;100308.84;;;6.17;56.16
27613;BME280;15036;48.094;-1.690;2022-12-11T07:59:00;100297.53;;;5.83;56.39
27613;BME280;15036;48.094;-1.690;2022-12-11T08:01:27;100298.50;;;5.98;56.97
27613;BME280;15036;48.094;-1.690;2022-12-11T08:03:54;100301.75;;;5.93;56.94
27613;BME280;15036;48.094;-1.690;2022-12-11T08:06:25;100302.34;;;6.03;56.90
27613;BME280;15036;48.094;-1.690;2022-12-11T08:08:52;100297.66;;;5.97;56.94
27613;BME280;15036;48.094;-1.690;2022-12-11T08:11:17;100299.75;;;5.87;57.34
27613;BME280;15036;48.094;-1.690;2022-12-11T08:13:43;100295.41;;;6.01;57.06
27613;BME280;15036;48.094;-1.690;2022-12-11T08:16:11;100296.84;;;5.89;57.13
27613;BME280;15036;48.094;-1.690;2022-12-11T08:18:37;100297.25;;;5.78;57.88
27613;BME280;15036;48.094;-1.690;2022-12-11T08:21:21;100288.41;;;6.06;57.04
27613;BME280;15036;48.094;-1.690;2022-12-11T08:23:47;100295.66;;;5.91;57.08
27613;BME280;15036;48.094;-1.690;2022-12-11T08:26:16;100289.78;;;5.88;57.42
27613;BME280;15036;48.094;-1.690;2022-12-11T08:28:42;100284.13;;;6.12;56.95
27613;BME280;15036;48.094;-1.690;2022-12-11T08:31:10;100279.94;;;5.87;57.75
27613;BME280;15036;48.094;-1.690;2022-12-11T08:33:37;100282.41;;;5.96;57.45
27613;BME280;15036;48.094;-1.690;2022-12-11T08:36:04;100285.34;;;5.87;57.40
27613;BME280;15036;48.094;-1.690;2022-12-11T08:38:30;100280.34;;;5.98;57.44
27613;BME280;15036;48.094;-1.690;2022-12-11T08:40:55;100277.53;;;6.14;57.12
27613;BME280;15036;48.094;-1.690;2022-12-11T08:43:21;100282.84;;;6.08;56.95
27613;BME280;15036;48.094;-1.690;2022-12-11T08:45:46;100278.81;;;6.04;57.12
27613;BME280;15036;48.094;-1.690;2022-12-11T08:48:12;100284.97;;;5.98;56.88
27613;BME280;15036;48.094;-1.690;2022-12-11T08:50:37;100273.63;;;5.94;57.38
27613;BME280;15036;48.094;-1.690;2022-12-11T08:53:06;100273.81;;;6.16;56.92
27613;BME280;15036;48.094;-1.690;2022-12-11T08:55:32;100272.28;;;6.13;56.92
27613;BME280;15036;48.094;-1.690;2022-12-11T08:57:57;100276.72;;;6.29;56.99
27613;BME280;15036;48.094;-1.690;2022-12-11T09:00:23;100267.19;;;6.33;56.56
27613;BME280;15036;48.094;-1.690;2022-12-11T09:02:48;100275.19;;;6.11;57.06
27613;BME280;15036;48.094;-1.690;2022-12-11T09:05:14;100270.06;;;6.17;56.92
27613;BME280;15036;48.094;-1.690;2022-12-11T09:07:39;100271.34;;;6.43;56.51
27613;BME280;15036;48.094;-1.690;2022-12-11T09:10:06;100278.69;;;5.97;56.99
27613;BME280;15036;48.094;-1.690;2022-12-11T09:12:33;100281.16;;;6.44;56.73
27613;BME280;15036;48.094;-1.690;2022-12-11T09:14:58;100280.22;;;6.52;56.62
27613;BME280;15036;48.094;-1.690;2022-12-11T09:17:24;100272.84;;;6.60;56.64
27613;BME280;15036;48.094;-1.690;2022-12-11T09:19:50;100274.94;;;6.73;56.07
27613;BME280;15036;48.094;-1.690;2022-12-11T09:22:15;100273.31;;;6.64;56.15
27613;BME280;15036;48.094;-1.690;2022-12-11T09:24:41;100279.13;;;6.61;56.17
27613;BME280;15036;48.094;-1.690;2022-12-11T09:27:06;100282.38;;;6.56;56.08
27613;BME280;15036;48.094;-1.690;2022-12-11T09:29:31;100276.88;;;6.64;55.94
27613;BME280;15036;48.094;-1.690;2022-12-11T09:31:57;100278.56;;;6.65;55.79
27613;BME280;15036;48.094;-1.690;2022-12-11T09:34:23;100274.34;;;6.63;55.86
27613;BME280;15036;48.094;-1.690;2022-12-11T09:36:49;100270.44;;;6.65;55.78
27613;BME280;15036;48.094;-1.690;2022-12-11T09:39:15;100279.88;;;6.55;55.98
27613;BME280;15036;48.094;-1.690;2022-12-11T09:44:40;100268.94;;;6.63;55.80
27613;BME280;15036;48.094;-1.690;2022-12-11T09:47:39;100270.28;;;6.44;56.35
27613;BME280;15036;48.094;-1.690;2022-12-11T09:50:06;100265.69;;;6.67;55.86
27613;BME280;15036;48.094;-1.690;2022-12-11T09:52:39;100264.81;;;6.67;55.79
27613;BME280;15036;48.094;-1.690;2022-12-11T09:55:19;100259.28;;;6.89;55.86
27613;BME280;15036;48.094;-1.690;2022-12-11T10:00:43;100249.19;;;6.98;55.82
27613;BME280;15036;48.094;-1.690;2022-12-11T10:11:48;100261.91;;;7.27;54.87
27613;BME280;15036;48.094;-1.690;2022-12-11T10:17:00;100267.69;;;7.24;55.01
27613;BME280;15036;48.094;-1.690;2022-12-11T10:19:29;100262.44;;;7.37;54.69
27613;BME280;15036;48.094;-1.690;2022-12-11T10:21:56;100272.38;;;7.30;55.13
27613;BME280;15036;48.094;-1.690;2022-12-11T10:26:55;100275.94;;;7.30;55.19
27613;BME280;15036;48.094;-1.690;2022-12-11T10:29:22;100270.19;;;7.40;54.94
27613;BME280;15036;48.094;-1.690;2022-12-11T10:31:52;100276.97;;;7.15;55.35
27613;BME280;15036;48.094;-1.690;2022-12-11T10:34:39;100278.13;;;7.56;54.91
27613;BME280;15036;48.094;-1.690;2022-12-11T10:37:06;100270.34;;;7.53;55.01
27613;BME280;15036;48.094;-1.690;2022-12-11T10:39:32;100265.19;;;7.58;54.89
27613;BME280;15036;48.094;-1.690;2022-12-11T10:42:01;100270.09;;;7.69;54.60
27613;BME280;15036;48.094;-1.690;2022-12-11T10:44:36;100266.94;;;7.86;54.34
27613;BME280;15036;48.094;-1.690;2022-12-11T10:47:17;100254.19;;;8.08;54.09
27613;BME280;15036;48.094;-1.690;2022-12-11T10:49:50;100259.19;;;8.05;53.85
27613;BME280;15036;48.094;-1.690;2022-12-11T10:52:37;100255.97;;;8.16;53.23
27613;BME280;15036;48.094;-1.690;2022-12-11T10:55:26;100254.66;;;7.69;53.95
27613;BME280;15036;48.094;-1.690;2022-12-11T10:57:56;100256.16;;;7.93;53.57
27613;BME280;15036;48.094;-1.690;2022-12-11T11:00:35;100247.63;;;7.96;53.71
27613;BME280;15036;48.094;-1.690;2022-12-11T11:03:03;100242.88;;;8.05;53.74
27613;BME280;15036;48.094;-1.690;2022-12-11T11:05:33;100245.84;;;7.88;53.94
27613;BME280;15036;48.094;-1.690;2022-12-11T11:08:20;100239.84;;;7.93;53.91
27613;BME280;15036;48.094;-1.690;2022-12-11T11:10:55;100240.56;;;8.02;53.72
27613;BME280;15036;48.094;-1.690;2022-12-11T11:13:24;100239.69;;;8.22;53.56
27613;BME280;15036;48.094;-1.690;2022-12-11T11:15:58;100228.47;;;8.25;53.21
27613;BME280;15036;48.094;-1.690;2022-12-11T11:18:26;100227.47;;;8.33;53.30
27613;BME280;15036;48.094;-1.690;2022-12-11T11:20:54;100232.91;;;8.33;53.49
27613;BME280;15036;48.094;-1.690;2022-12-11T11:23:21;100224.47;;;8.49;53.11
27613;BME280;15036;48.094;-1.690;2022-12-11T11:25:58;100232.94;;;8.67;52.83
27613;BME280;15036;48.094;-1.690;2022-12-11T11:28:29;100232.59;;;8.77;52.13
27613;BME280;15036;48.094;-1.690;2022-12-11T11:31:05;100224.84;;;8.80;52.19
27613;BME280;15036;48.094;-1.690;2022-12-11T11:33:34;100232.00;;;8.81;52.26
27613;BME280;15036;48.094;-1.690;2022-12-11T11:36:06;100230.56;;;8.92;52.42
27613;BME280;15036;48.094;-1.690;2022-12-11T11:38:35;100221.78;;;8.90;51.84
27613;BME280;15036;48.094;-1.690;2022-12-11T11:41:10;100216.78;;;8.93;51.88
27613;BME280;15036;48.094;-1.690;2022-12-11T11:43:43;100225.44;;;8.75;52.30
27613;BME280;15036;48.094;-1.690;2022-12-11T11:51:35;100219.03;;;8.90;52.10
27613;BME280;15036;48.094;-1.690;2022-12-11T11:54:10;100210.19;;;9.22;51.39
27613;BME280;15036;48.094;-1.690;2022-12-11T11:56:42;100204.31;;;9.18;51.57
27613;BME280;15036;48.094;-1.690;2022-12-11T11:59:21;100214.22;;;9.32;51.43
27613;BME280;15036;48.094;-1.690;2022-12-11T12:01:50;100202.28;;;9.33;50.97
27613;BME280;15036;48.094;-1.690;2022-12-11T12:04:18;100201.66;;;9.38;51.09
27613;BME280;15036;48.094;-1.690;2022-12-11T12:14:24;100203.84;;;9.75;51.12
27613;BME280;15036;48.094;-1.690;2022-12-11T12:17:29;100194.84;;;9.88;50.43
27613;BME280;15036;48.094;-1.690;2022-12-11T12:20:52;100193.19;;;9.93;49.79
27613;BME280;15036;48.094;-1.690;2022-12-11T12:25:53;100180.19;;;9.95;49.56
27613;BME280;15036;48.094;-1.690;2022-12-11T12:28:54;100177.03;;;9.92;49.83
27613;BME280;15036;48.094;-1.690;2022-12-11T12:32:07;100176.19;;;9.85;49.81
27613;BME280;15036;48.094;-1.690;2022-12-11T12:35:14;100173.69;;;9.96;49.87
27613;BME280;15036;48.094;-1.690;2022-12-11T12:37:55;100172.41;;;10.05;49.70
27613;BME280;15036;48.094;-1.690;2022-12-11T12:40:55;100169.91;;;10.04;49.78
27613;BME280;15036;48.094;-1.690;2022-12-11T12:48:48;100157.97;;;10.11;49.59
27613;BME280;15036;48.094;-1.690;2022-12-11T12:51:15;100153.34;;;10.18;49.67
27613;BME280;15036;48.094;-1.690;2022-12-11T12:53:46;100151.88;;;10.22;49.27
27613;BME280;15036;48.094;-1.690;2022-12-11T12:56:12;100148.50;;;10.01;49.60
27613;BME280;15036;48.094;-1.690;2022-12-11T13:01:21;100143.50;;;10.17;49.56
27613;BME280;15036;48.094;-1.690;2022-12-11T13:06:15;100136.31;;;10.36;49.36
27613;BME280;15036;48.094;-1.690;2022-12-11T13:08:52;100135.69;;;10.34;49.17
27613;BME280;15036;48.094;-1.690;2022-12-11T13:11:19;100134.84;;;10.40;49.65
27613;BME280;15036;48.094;-1.690;2022-12-11T13:16:39;100129.38;;;10.53;49.34
27613;BME280;15036;48.094;-1.690;2022-12-11T13:26:46;100129.78;;;10.63;49.12
27613;BME280;15036;48.094;-1.690;2022-12-11T13:29:35;100125.50;;;10.74;48.41
27613;BME280;15036;48.094;-1.690;2022-12-11T13:34:31;100123.03;;;10.66;48.93
27613;BME280;15036;48.094;-1.690;2022-12-11T13:36:58;100127.22;;;10.68;49.41
27613;BME280;15036;48.094;-1.690;2022-12-11T13:39:25;100122.16;;;10.78;49.25
27613;BME280;15036;48.094;-1.690;2022-12-11T13:42:04;100126.47;;;10.99;48.54
27613;BME280;15036;48.094;-1.690;2022-12-11T13:44:35;100129.22;;;10.99;48.31
27613;BME280;15036;48.094;-1.690;2022-12-11T13:47:03;100126.06;;;10.95;48.57
27613;BME280;15036;48.094;-1.690;2022-12-11T13:49:35;100125.50;;;10.74;48.87
27613;BME280;15036;48.094;-1.690;2022-12-11T13:52:01;100133.06;;;10.85;48.61
27613;BME280;15036;48.094;-1.690;2022-12-11T13:54:28;100127.09;;;11.01;48.42
27613;BME280;15036;48.094;-1.690;2022-12-11T13:56:57;100124.13;;;11.09;48.34
27613;BME280;15036;48.094;-1.690;2022-12-11T13:59:35;100116.47;;;11.24;47.61
27613;BME280;15036;48.094;-1.690;2022-12-11T14:02:34;100122.44;;;11.08;48.01
27613;BME280;15036;48.094;-1.690;2022-12-11T14:05:07;100121.78;;;11.12;48.02
27613;BME280;15036;48.094;-1.690;2022-12-11T14:07:47;100118.22;;;11.12;47.89
27613;BME280;15036;48.094;-1.690;2022-12-11T14:10:17;100117.84;;;11.02;48.17
27613;BME280;15036;48.094;-1.690;2022-12-11T14:13:06;100118.91;;;11.01;48.08
27613;BME280;15036;48.094;-1.690;2022-12-11T14:15:35;100112.81;;;10.99;47.96
27613;BME280;15036;48.094;-1.690;2022-12-11T14:18:02;100113.88;;;10.98;48.35